CYQR

Regina International Airport

Regina, Saskatchewan, Canada
TAF CYQR 202350Z 2100/2124 34008KT P6SM FEW080 SCT220 BECMG 2103/2105 06006KT FM210800 VRB03KT P6SM SKC BECMG 2113/2115 18006KT FM211800 28012KT P6SM SCT180 RMK NXT FCST BY 210600Z
Issued Valid From Valid To
Aug-20 @ 23:50 UTC
(18 hours ago)
Aug-21 @ 00:00 UTC
(18 hours ago)
Aug-22 @ 00:00 UTC
(in 6 hours)
Expired Click to View Aug-21 @ 00:00 to Aug-21 @ 03:00
TAF CYQR 202350Z 2100/2124 34008KT P6SM FEW080 SCT220
Wind Visibility Clouds
340° at 8 knots Greater than 6 miles
  • Few at 8,000' AGL
  • Scattered at 22,000' AGL
Expired Click to View Aug-21 @ 03:00 to Aug-21 @ 08:00
BECMG 2103/2105 06006KT
Wind Visibility Clouds
60° at 6 knots Greater than 6 miles
  • Few at 8,000' AGL
  • Scattered at 22,000' AGL
Expired Click to View Aug-21 @ 08:00 to Aug-21 @ 13:00
FM210800 VRB03KT P6SM SKC
Wind Visibility Clouds
Variable at 3 knots Greater than 6 miles
  • Clear skies
Becoming Aug-21 @ 13:00 to Aug-21 @ 18:00
BECMG 2113/2115 18006KT
Wind Visibility Clouds
180° at 6 knots Greater than 6 miles
  • Clear skies
From Aug-21 @ 18:00 to Aug-22 @ 00:00
FM211800 28012KT P6SM SCT180 RMK NXT FCST BY 210600Z
Wind Visibility Clouds
280° at 12 knots Greater than 6 miles
  • Scattered at 18,000' AGL
TAF CYQR 202350Z 2100/2124 34008KT P6SM FEW080 SCT220 BECMG 2103/2105 06006KT FM210800 VRB03KT P6SM SKC BECMG 2113/2115 18006KT FM211800 28012KT P6SM SCT180 RMK NXT FCST BY 210600Z
Issued Aug-20 @ 23:50 UTC
(18 hours ago)
Valid From Aug-21 @ 00:00 UTC
(18 hours ago)
Valid To Aug-22 @ 00:00 UTC
(in 6 hours)
Aug-21 @ 00:00 - Aug-21 @ 03:00
Wind Visibility
340° at 8 knots Greater than 6 miles
Clouds
  • Few at 8,000' AGL
  • Scattered at 22,000' AGL
Aug-21 @ 03:00 - Aug-21 @ 08:00
Wind Visibility
60° at 6 knots Greater than 6 miles
Clouds
  • Few at 8,000' AGL
  • Scattered at 22,000' AGL
Aug-21 @ 08:00 - Aug-21 @ 13:00
Wind Visibility
Variable at 3 knots Greater than 6 miles
Clouds
  • Clear skies
Becoming Aug-21 @ 13:00 - Aug-21 @ 18:00
Wind Visibility
180° at 6 knots Greater than 6 miles
Clouds
  • Clear skies
From Aug-21 @ 18:00 - Aug-22 @ 00:00
Wind Visibility
280° at 12 knots Greater than 6 miles
Clouds
  • Scattered at 18,000' AGL